This is the latest recevied weather packets stored in our database for station/object AC5JC-1. If no packets are shown the sender has not sent any weather packets the latest 10 day(s).
| Time | Temp. | Humidity | Pressure | Rain* | Wind** | Luminosity | Snow |
|---|---|---|---|---|---|---|---|
| 1777999234 | 26.67° C | 75% | 1005.6 hPa | 0 mm | - | 427 W/m² | - |
| 1777996855 | 25° C | 79% | 1005 hPa | 0 mm | - | 385 W/m² | - |
| 1777995970 | 25° C | 80% | 1005.1 hPa | 0 mm | - | 356 W/m² | - |
| 1777991475 | 23.33° C | 83% | 1004.9 hPa | 0 mm | - | 263 W/m² | - |
| 1777989934 | 22.78° C | 85% | 1004.9 hPa | 0 mm | - | 155 W/m² | - |
| 1777987834 | 21.67° C | 88% | 1004.7 hPa | 0 mm | - | 119 W/m² | - |
| 1777987524 | 21.67° C | 88% | 1004.9 hPa | 0 mm | - | 86 W/m² | - |
| 1777986345 | 21.11° C | 89% | 1004.5 hPa | 0 mm | - | 85 W/m² | - |
| 1777985768 | 21.11° C | 89% | 1004.6 hPa | 0 mm | - | 65 W/m² | - |
| 1777985433 | 21.11° C | 89% | 1004.6 hPa | 0 mm | - | 59 W/m² | - |
| 1777985134 | 21.11° C | 89% | 1004.6 hPa | 0 mm | - | 49 W/m² | - |
| 1777979134 | 20° C | 91% | 1003.8 hPa | 0 mm | - | 0 W/m² | - |
| 1777976154 | 20.56° C | 91% | 1003.8 hPa | 0 mm | - | 0 W/m² | - |
| 1777973753 | 20.56° C | 89% | 1003.7 hPa | 0 mm | - | 0 W/m² | - |
| 1777973476 | 20.56° C | 89% | 1003.8 hPa | 0 mm | - | 0 W/m² | - |
| 1777971934 | 21.11° C | 88% | 1004.1 hPa | 0 mm | - | 0 W/m² | - |
| 1777971634 | 21.11° C | 88% | 1004.2 hPa | 0 mm | - | 0 W/m² | - |
| 1777971333 | 21.11° C | 88% | 1004.2 hPa | 0 mm | - | 0 W/m² | - |
| 1777969534 | 21.67° C | 86% | 1004.3 hPa | 0 mm | - | 0 W/m² | - |
| 1777968334 | 21.67° C | 84% | 1004.2 hPa | 0 mm | - | 0 W/m² | - |
| 1777967433 | 21.67° C | 84% | 1004.3 hPa | 0 mm | - | 0 W/m² | - |
| 1777966834 | 21.67° C | 83% | 1004.4 hPa | 0 mm | - | 0 W/m² | - |
| 1777965621 | 21.67° C | 82% | 1004.8 hPa | 0 mm | - | 0 W/m² | - |
| 1777965074 | 22.22° C | 82% | 1004.9 hPa | 0 mm | - | 0 W/m² | - |
| 1777964734 | 22.22° C | 81% | 1004.9 hPa | 0 mm | - | 0 W/m² | - |
* Rain latest hour (hover to see other rain measurements)
** Current wind speed in m/s (hover to see current wind gust speed)